Time;durP1;ratioP1;P1;durP2;ratioP2;P2;SDS_P1;SDS_P2;PMS_P1;PMS_P2;Temp;Humidity;BMP_temperature;BMP_pressure;BME280_temperature;BME280_humidity;BME280_pressure;Samples;Min_cycle;Max_cycle;Signal;HPM_P1;HPM_P2
2022/11/16 00:00:19;;;;;;;336.75;322.83;;;7.80;99.90;;;;;;5044750;28;20398;-81
2022/11/16 00:02:47;;;;;;;381.55;365.40;;;7.80;99.90;;;;;;5039908;28;20116;-81
2022/11/16 00:05:13;;;;;;;367.27;352.05;;;7.80;99.90;;;;;;5040979;28;20037;-78
2022/11/16 00:07:39;;;;;;;367.77;352.80;;;7.80;99.90;;;;;;5062276;28;20021;-78
2022/11/16 00:10:05;;;;;;;359.13;343.92;;;7.80;99.90;;;;;;5040751;28;20040;-82
2022/11/16 00:12:31;;;;;;;379.65;363.20;;;7.80;99.90;;;;;;5062640;28;20029;-79
2022/11/16 00:14:57;;;;;;;356.48;341.73;;;7.80;99.90;;;;;;5042547;28;20750;-80
2022/11/16 00:17:22;;;;;;;385.58;368.60;;;7.70;99.90;;;;;;5035071;28;20078;-79
2022/11/16 00:19:48;;;;;;;396.83;380.33;;;7.70;99.90;;;;;;5041758;28;20483;-81
2022/11/16 00:22:13;;;;;;;390.40;373.48;;;7.80;99.90;;;;;;5044525;28;20055;-78
2022/11/16 00:24:39;;;;;;;359.77;344.77;;;7.80;99.90;;;;;;5039299;28;20394;-81
2022/11/16 00:27:05;;;;;;;355.00;340.13;;;7.90;99.90;;;;;;5060728;28;20414;-78
2022/11/16 00:29:30;;;;;;;378.63;362.75;;;7.90;99.90;;;;;;5047502;28;20032;-80
2022/11/16 00:31:56;;;;;;;403.48;386.02;;;7.90;99.90;;;;;;5057503;28;20067;-82
2022/11/16 00:34:22;;;;;;;357.98;341.95;;;7.80;99.90;;;;;;5019721;28;20522;-80
2022/11/16 00:36:51;;;;;;;394.10;377.33;;;7.80;99.90;;;;;;5061324;28;20032;-80
2022/11/16 00:39:17;;;;;;;356.25;341.08;;;7.80;99.90;;;;;;5053161;28;20085;-80
2022/11/16 00:41:43;;;;;;;406.83;389.08;;;7.70;99.90;;;;;;5042592;28;20036;-80
2022/11/16 00:44:10;;;;;;;346.10;331.92;;;7.80;99.90;;;;;;5063138;28;20033;-79
2022/11/16 00:46:36;;;;;;;380.77;364.52;;;7.90;99.90;;;;;;5055539;28;20033;-78
2022/11/16 00:49:04;;;;;;;408.98;390.75;;;7.90;99.90;;;;;;5064357;28;20135;-81
2022/11/16 00:51:30;;;;;;;415.55;397.52;;;7.90;99.90;;;;;;5067066;28;20538;-82
2022/11/16 00:53:55;;;;;;;403.00;385.95;;;7.90;99.90;;;;;;5051466;28;20127;-80
2022/11/16 00:56:21;;;;;;;427.30;408.67;;;7.90;99.90;;;;;;5037073;28;20689;-83
2022/11/16 00:58:47;;;;;;;433.63;413.90;;;7.90;99.90;;;;;;5068482;28;20040;-81
2022/11/16 01:01:13;;;;;;;430.25;410.65;;;7.80;99.90;;;;;;5052762;28;20174;-82
2022/11/16 01:03:39;;;;;;;427.45;408.63;;;7.60;99.90;;;;;;5064219;28;20086;-79
2022/11/16 01:06:07;;;;;;;441.95;421.25;;;7.60;99.90;;;;;;5048246;28;20036;-80
2022/11/16 01:08:35;;;;;;;398.45;381.23;;;7.70;99.90;;;;;;5049952;28;20112;-82
2022/11/16 01:13:47;;;;;;;471.10;448.23;;;7.60;99.90;;;;;;5053697;28;20075;-79
2022/11/16 01:16:18;;;;;;;480.15;456.75;;;7.50;99.90;;;;;;5049685;28;20025;-78
2022/11/16 01:18:47;;;;;;;444.60;423.75;;;7.50;99.90;;;;;;5067467;28;20028;-79
2022/11/16 01:21:13;;;;;;;437.17;417.48;;;7.60;99.90;;;;;;5070498;28;20032;-80
2022/11/16 01:23:39;;;;;;;412.65;394.52;;;7.60;99.90;;;;;;5066600;28;20029;-78
2022/11/16 01:26:04;;;;;;;419.63;401.05;;;7.70;99.90;;;;;;5069249;28;20047;-81
2022/11/16 01:28:31;;;;;;;384.63;368.77;;;7.60;99.90;;;;;;5051409;28;20056;-80
2022/11/16 01:30:57;;;;;;;477.80;454.85;;;7.60;99.90;;;;;;5057155;28;20456;-79
2022/11/16 01:33:22;;;;;;;472.05;449.90;;;7.50;99.90;;;;;;5070798;28;20127;-79
2022/11/16 01:35:48;;;;;;;461.75;440.23;;;7.60;99.90;;;;;;5050470;28;20336;-81
2022/11/16 01:38:14;;;;;;;456.80;435.73;;;7.50;99.90;;;;;;5069204;28;20052;-79
2022/11/16 01:40:40;;;;;;;413.45;395.90;;;7.40;99.90;;;;;;5071096;28;20028;-79
2022/11/16 01:43:18;;;;;;;419.30;399.88;;;7.50;99.90;;;;;;5072147;28;20539;-79
2022/11/16 01:45:45;;;;;;;436.85;417.20;;;7.50;99.90;;;;;;5049257;28;20036;-79
2022/11/16 01:48:15;;;;;;;483.40;460.05;;;7.50;99.90;;;;;;5035622;28;20510;-79
2022/11/16 01:50:41;;;;;;;525.10;498.40;;;7.40;99.90;;;;;;5072231;28;20067;-81
2022/11/16 01:53:09;;;;;;;528.42;501.65;;;7.50;99.90;;;;;;5034230;28;20058;-79
2022/11/16 01:55:37;;;;;;;534.83;508.30;;;7.60;99.90;;;;;;5050498;28;20036;-79
2022/11/16 01:58:03;;;;;;;544.13;516.78;;;7.60;99.90;;;;;;5056487;28;20019;-81
2022/11/16 02:00:30;;;;;;;545.30;517.92;;;7.60;99.90;;;;;;5049933;28;20092;-79
2022/11/16 02:02:57;;;;;;;536.58;509.25;;;7.60;99.90;;;;;;5048817;28;20503;-78
2022/11/16 02:05:36;;;;;;;606.42;574.35;;;7.60;99.90;;;;;;5067837;28;20033;-79
2022/11/16 02:11:22;;;;;;;482.15;458.88;;;7.60;99.90;;;;;;5072198;28;20661;-78
2022/11/16 02:13:57;;;;;;;449.10;427.40;;;7.60;99.90;;;;;;5064457;28;20026;-80
2022/11/16 02:16:55;;;;;;;489.70;466.35;;;7.50;99.90;;;;;;5064874;28;20032;-80
2022/11/16 02:19:46;;;;;;;463.20;441.60;;;7.60;99.90;;;;;;5056560;28;20031;-83
2022/11/16 02:22:11;;;;;;;;;;;7.50;99.90;;;;;;5068348;28;20043;-80
2022/11/16 02:24:52;;;;;;;287.38;274.67;;;7.50;99.90;;;;;;5066787;28;19916;-80
2022/11/16 02:27:21;;;;;;;405.80;387.50;;;7.60;99.90;;;;;;5066456;28;20032;-78
2022/11/16 02:29:53;;;;;;;458.10;436.02;;;7.50;99.90;;;;;;5070133;28;20036;-80
2022/11/16 02:32:25;;;;;;;477.52;453.67;;;7.40;99.90;;;;;;5068226;28;20061;-80
2022/11/16 02:35:02;;;;;;;529.55;502.63;;;7.40;99.90;;;;;;5072409;28;20637;-83
2022/11/16 02:37:33;;;;;;;451.13;430.33;;;7.40;99.90;;;;;;5066898;28;20124;-81
2022/11/16 02:40:02;;;;;;;508.83;482.77;;;7.40;99.90;;;;;;5064888;28;20128;-82
2022/11/16 02:42:39;;;;;;;484.00;460.25;;;7.40;99.90;;;;;;5068369;28;20028;-81
2022/11/16 02:45:08;;;;;;;532.75;505.50;;;7.40;99.90;;;;;;5068326;28;20040;-80
2022/11/16 02:47:35;;;;;;;516.00;490.08;;;7.40;99.90;;;;;;5067512;28;20149;-83
2022/11/16 02:50:08;;;;;;;544.55;516.45;;;7.40;99.90;;;;;;5034976;28;20057;-82
2022/11/16 02:52:35;;;;;;;557.15;527.88;;;7.50;99.90;;;;;;5066805;28;20051;-80
2022/11/16 02:55:01;;;;;;;597.03;565.03;;;7.40;99.90;;;;;;5048954;28;20051;-77
2022/11/16 02:57:41;;;;;;;573.38;542.15;;;7.40;99.90;;;;;;5036519;28;20033;-80
2022/11/16 03:00:09;;;;;;;542.37;514.80;;;7.30;99.90;;;;;;5072516;28;20478;-80
2022/11/16 03:03:12;;;;;;;577.63;546.80;;;7.40;99.90;;;;;;5069333;28;20344;-78
2022/11/16 03:05:46;;;;;;;539.55;512.42;;;7.40;99.90;;;;;;5051424;28;20066;-79
2022/11/16 03:08:33;;;;;;;648.72;612.85;;;7.40;99.90;;;;;;5051440;28;20048;-81
2022/11/16 03:13:48;;;;;;;585.80;554.53;;;7.40;99.90;;;;;;5066080;28;20623;-80
2022/11/16 03:16:28;;;;;;;604.40;572.13;;;7.50;99.90;;;;;;5065758;28;20409;-82
2022/11/16 03:18:58;;;;;;;692.53;654.17;;;7.40;99.90;;;;;;5072036;28;20060;-84
2022/11/16 03:21:34;;;;;;;653.03;616.30;;;7.40;99.90;;;;;;5069458;28;20495;-83
2022/11/16 03:24:00;;;;;;;616.88;582.65;;;7.40;99.90;;;;;;5054475;28;20453;-80
2022/11/16 03:26:33;;;;;;;624.72;591.97;;;7.30;99.90;;;;;;5071677;28;20033;-81
2022/11/16 03:29:17;;;;;;;614.75;581.75;;;7.40;99.90;;;;;;5053831;28;20491;-78
2022/11/16 03:31:48;;;;;;;598.05;565.80;;;7.30;99.90;;;;;;5068311;28;20036;-78
2022/11/16 03:34:17;;;;;;;603.72;570.20;;;7.40;99.90;;;;;;5053435;28;20075;-81
2022/11/16 03:36:45;;;;;;;562.10;529.83;;;7.40;99.90;;;;;;5051710;28;20055;-81
2022/11/16 03:39:17;;;;;;;511.17;481.45;;;7.50;99.90;;;;;;5071634;28;20024;-83
2022/11/16 03:41:46;;;;;;;587.70;556.17;;;7.40;99.90;;;;;;5052849;28;20411;-85
2022/11/16 03:44:14;;;;;;;640.35;604.58;;;7.40;99.90;;;;;;5071052;28;20032;-84
2022/11/16 03:46:42;;;;;;;599.38;566.13;;;7.40;99.90;;;;;;5076296;28;20491;-80
2022/11/16 03:49:08;;;;;;;623.65;589.88;;;7.50;99.90;;;;;;5051526;28;20491;-80
2022/11/16 03:51:33;;;;;;;634.58;599.80;;;7.50;99.90;;;;;;5071893;28;20111;-79
2022/11/16 03:53:59;;;;;;;580.78;550.60;;;7.50;99.90;;;;;;5069719;28;20029;-79
2022/11/16 03:56:25;;;;;;;606.78;574.22;;;7.50;99.90;;;;;;5053547;28;20068;-83
2022/11/16 03:58:53;;;;;;;575.47;545.30;;;7.50;99.90;;;;;;5037339;28;20501;-79
2022/11/16 04:01:19;;;;;;;596.10;564.55;;;7.50;99.90;;;;;;5072470;28;20025;-80
2022/11/16 04:03:44;;;;;;;617.47;584.13;;;7.50;99.90;;;;;;5053949;28;20085;-80
2022/11/16 04:25:40;;;;;;;303.38;288.58;;;7.30;99.90;;;;;;5073737;28;20107;-80
2022/11/16 04:28:13;;;;;;;419.30;398.67;;;7.20;99.90;;;;;;5050713;28;20128;-80
2022/11/16 04:39:09;;;;;;;565.92;536.22;;;7.40;99.90;;;;;;5066550;28;20074;-82
2022/11/16 04:44:22;;;;;;;596.58;563.95;;;7.40;99.90;;;;;;5069517;28;20040;-83
2022/11/16 04:47:05;;;;;;;548.78;518.92;;;7.40;99.90;;;;;;5053966;28;20525;-81
2022/11/16 04:49:32;;;;;;;605.83;570.80;;;7.40;99.90;;;;;;5049379;28;20102;-82
2022/11/16 04:51:58;;;;;;;681.63;643.25;;;7.50;99.90;;;;;;5069626;28;20032;-80
2022/11/16 04:54:24;;;;;;;611.88;576.50;;;7.40;99.90;;;;;;5070896;28;20028;-79
2022/11/16 04:56:50;;;;;;;664.65;627.60;;;7.40;99.90;;;;;;5078556;28;20047;-81
2022/11/16 04:59:17;;;;;;;679.33;637.75;;;7.40;99.90;;;;;;5069825;28;20501;-84
2022/11/16 05:04:27;;;;;;;542.40;508.52;;;7.40;99.90;;;;;;5069157;28;20051;-81
2022/11/16 05:06:52;;;;;;;390.42;357.55;;;7.40;99.90;;;;;;5072298;28;20397;-81
2022/11/16 05:09:18;;;;;;;633.83;596.63;;;7.40;99.90;;;;;;5052342;28;20051;-81
2022/11/16 05:11:44;;;;;;;515.30;485.15;;;7.40;99.90;;;;;;5050243;28;20082;-84
2022/11/16 05:14:09;;;;;;;1999.90;999.90;;;7.50;99.90;;;;;;5068548;28;20559;-82
2022/11/16 05:16:35;;;;;;;671.60;629.83;;;7.50;99.90;;;;;;5051187;28;20060;-81
2022/11/16 05:21:45;;;;;;;649.70;610.28;;;7.30;99.90;;;;;;5070655;28;20112;-83
2022/11/16 05:26:55;;;;;;;659.85;622.45;;;7.40;99.90;;;;;;5065413;28;20035;-82
2022/11/16 05:29:21;;;;;;;659.97;621.13;;;7.30;99.90;;;;;;5049385;28;20036;-79
2022/11/16 05:31:47;;;;;;;457.08;428.15;;;7.30;99.90;;;;;;5066922;28;20127;-83
2022/11/16 05:34:12;;;;;;;613.05;579.65;;;7.40;99.90;;;;;;5068810;28;20047;-80
2022/11/16 05:36:38;;;;;;;740.30;693.28;;;7.30;99.90;;;;;;5065538;28;20029;-77
2022/11/16 05:39:04;;;;;;;635.17;599.50;;;7.30;99.90;;;;;;5065749;28;20040;-78
2022/11/16 05:41:30;;;;;;;573.55;540.38;;;7.30;99.90;;;;;;5032714;28;20035;-82
2022/11/16 05:43:56;;;;;;;584.35;547.80;;;7.30;99.90;;;;;;5062078;28;20016;-81
2022/11/16 05:46:22;;;;;;;619.97;582.72;;;7.30;99.90;;;;;;5063044;28;20098;-81
2022/11/16 05:48:48;;;;;;;632.42;593.50;;;7.40;99.90;;;;;;5048006;28;20040;-83
2022/11/16 05:51:14;;;;;;;623.17;586.83;;;7.40;99.90;;;;;;5040231;28;20045;-79
2022/11/16 05:53:40;;;;;;;976.80;698.92;;;7.50;99.90;;;;;;5062883;28;20035;-80
2022/11/16 05:56:06;;;;;;;615.85;581.40;;;7.40;99.90;;;;;;5064447;28;20483;-80
2022/11/16 05:58:32;;;;;;;605.55;571.25;;;7.40;99.90;;;;;;5048206;28;20568;-79
2022/11/16 06:00:57;;;;;;;642.45;606.60;;;7.40;99.90;;;;;;5051638;28;20029;-80
2022/11/16 06:03:23;;;;;;;604.30;572.15;;;7.50;99.90;;;;;;5068480;28;20048;-79
2022/11/16 06:05:52;;;;;;;1026.05;744.83;;;7.50;99.90;;;;;;5069035;28;20043;-78
2022/11/16 06:08:18;;;;;;;642.70;604.90;;;7.40;99.90;;;;;;5053315;28;20032;-78
2022/11/16 06:10:44;;;;;;;653.90;614.05;;;7.50;99.90;;;;;;5048587;28;20032;-80
2022/11/16 06:13:09;;;;;;;645.85;603.53;;;7.50;99.90;;;;;;5043713;28;20040;-80
2022/11/16 06:15:37;;;;;;;628.88;590.67;;;7.50;99.90;;;;;;5070836;28;20099;-79
2022/11/16 06:18:02;;;;;;;700.78;659.80;;;7.50;99.90;;;;;;5064532;28;20024;-79
2022/11/16 06:20:28;;;;;;;506.60;473.85;;;7.50;99.90;;;;;;5067306;28;20312;-78
2022/11/16 06:22:54;;;;;;;630.88;596.40;;;7.50;99.90;;;;;;5069570;28;20090;-77
2022/11/16 06:25:19;;;;;;;609.17;569.78;;;7.60;99.90;;;;;;5033080;28;20505;-78
2022/11/16 06:27:45;;;;;;;1014.22;733.70;;;7.70;99.90;;;;;;5049464;28;20462;-79
2022/11/16 06:30:11;;;;;;;1229.38;714.88;;;7.60;99.90;;;;;;5068452;28;20037;-79
2022/11/16 06:32:36;;;;;;;737.03;692.70;;;7.70;99.90;;;;;;5063354;28;20033;-77
2022/11/16 06:35:02;;;;;;;1065.15;780.70;;;7.70;99.90;;;;;;5049582;28;20037;-82
2022/11/16 06:37:28;;;;;;;646.80;603.13;;;7.70;99.90;;;;;;5067352;28;20033;-78
2022/11/16 06:39:55;;;;;;;640.88;602.50;;;7.70;99.90;;;;;;5047556;28;20821;-83
2022/11/16 06:42:20;;;;;;;1006.53;726.95;;;7.70;99.90;;;;;;5051236;28;20044;-79
2022/11/16 06:44:46;;;;;;;710.30;668.55;;;7.70;99.90;;;;;;5065221;28;20040;-83
2022/11/16 06:47:12;;;;;;;1046.43;765.22;;;7.80;99.90;;;;;;5067892;28;20032;-78
2022/11/16 06:49:37;;;;;;;737.47;691.35;;;7.80;99.90;;;;;;5041447;28;20037;-83
2022/11/16 06:52:04;;;;;;;735.53;690.90;;;7.70;99.90;;;;;;5029010;28;20033;-82
2022/11/16 06:54:29;;;;;;;742.50;696.72;;;7.80;99.90;;;;;;5030527;28;20033;-82
2022/11/16 06:56:55;;;;;;;1061.57;778.95;;;7.80;99.90;;;;;;5013913;28;20036;-81
2022/11/16 06:59:21;;;;;;;717.47;674.65;;;7.80;99.90;;;;;;5048357;28;20029;-78
2022/11/16 07:01:46;;;;;;;724.65;679.72;;;7.80;99.90;;;;;;5013155;28;20048;-79
2022/11/16 07:04:12;;;;;;;725.45;682.85;;;7.80;99.90;;;;;;5047848;28;20071;-83
2022/11/16 07:06:38;;;;;;;646.83;608.60;;;7.70;99.90;;;;;;5046782;28;20052;-82
2022/11/16 07:09:08;;;;;;;826.65;772.55;;;7.70;99.90;;;;;;5049088;28;20029;-80
2022/11/16 07:11:35;;;;;;;748.83;702.28;;;7.70;99.90;;;;;;5030116;28;20033;-81
2022/11/16 07:14:01;;;;;;;686.15;646.72;;;7.70;99.90;;;;;;5043297;28;20122;-83
2022/11/16 07:16:29;;;;;;;676.25;634.83;;;7.60;99.90;;;;;;5045002;28;20032;-84
2022/11/16 07:18:56;;;;;;;1033.50;752.03;;;7.70;99.90;;;;;;5047782;28;20032;-81
2022/11/16 07:21:22;;;;;;;1028.25;747.80;;;7.70;99.90;;;;;;5033683;28;20498;-82
2022/11/16 07:23:48;;;;;;;628.65;593.58;;;7.70;99.90;;;;;;5029851;28;20033;-81
2022/11/16 07:26:15;;;;;;;683.92;644.90;;;7.80;99.90;;;;;;5046415;28;20029;-80
2022/11/16 07:28:40;;;;;;;713.35;670.78;;;7.70;99.90;;;;;;5048968;28;20057;-82
2022/11/16 07:31:09;;;;;;;976.78;697.95;;;7.70;99.90;;;;;;5026790;28;20087;-83
2022/11/16 07:33:35;;;;;;;692.10;651.33;;;7.70;99.90;;;;;;5025823;28;20033;-79
2022/11/16 07:36:10;;;;;;;665.97;627.08;;;7.70;99.90;;;;;;5047925;28;20513;-78
2022/11/16 07:38:36;;;;;;;696.67;655.72;;;7.70;99.90;;;;;;5029716;28;20026;-80
2022/11/16 07:41:04;;;;;;;706.42;664.25;;;7.70;99.90;;;;;;5034035;28;20025;-83
2022/11/16 07:43:31;;;;;;;678.67;636.63;;;7.70;99.90;;;;;;5049881;28;20029;-80
2022/11/16 07:46:11;;;;;;;687.25;646.92;;;7.70;99.90;;;;;;5028790;28;20548;-82
2022/11/16 07:48:37;;;;;;;555.55;523.97;;;7.70;99.90;;;;;;5046806;28;20099;-82
2022/11/16 07:51:04;;;;;;;1999.90;999.90;;;7.70;99.90;;;;;;5057005;28;20045;-81
2022/11/16 07:53:30;;;;;;;716.08;673.92;;;7.70;99.90;;;;;;5037076;28;20549;-83
2022/11/16 07:55:56;;;;;;;690.45;651.45;;;7.70;99.90;;;;;;5057574;28;20024;-83
2022/11/16 07:58:22;;;;;;;704.70;663.45;;;7.70;99.90;;;;;;5058161;28;20131;-83
2022/11/16 08:00:48;;;;;;;737.05;693.03;;;7.70;99.90;;;;;;5021249;28;20116;-80
2022/11/16 08:03:14;;;;;;;620.83;586.85;;;7.70;99.90;;;;;;5052979;28;20066;-79
2022/11/16 08:05:40;;;;;;;681.08;642.30;;;7.70;99.90;;;;;;5062303;28;20056;-83
2022/11/16 08:08:05;;;;;;;738.08;693.00;;;7.80;99.90;;;;;;5038772;28;20029;-82
2022/11/16 08:10:31;;;;;;;728.47;686.10;;;7.80;99.90;;;;;;5041538;28;20041;-81
2022/11/16 08:12:57;;;;;;;1013.33;732.95;;;7.80;99.90;;;;;;5065259;28;20651;-78
2022/11/16 08:15:24;;;;;;;1043.68;759.45;;;7.80;99.90;;;;;;5061939;28;20064;-79
2022/11/16 08:17:50;;;;;;;1039.47;757.45;;;7.90;99.90;;;;;;5046115;28;20032;-80
2022/11/16 08:20:16;;;;;;;1002.63;723.20;;;7.90;99.90;;;;;;5028978;28;20059;-79
2022/11/16 08:22:43;;;;;;;1064.50;780.97;;;7.90;99.90;;;;;;5039185;28;20506;-80
2022/11/16 08:25:10;;;;;;;753.45;707.67;;;7.90;99.90;;;;;;5056999;28;20033;-80
2022/11/16 08:27:36;;;;;;;1017.65;735.78;;;7.90;99.90;;;;;;5058635;28;20032;-80
2022/11/16 08:30:03;;;;;;;720.78;677.05;;;7.90;99.90;;;;;;5060387;28;20037;-80
2022/11/16 08:32:29;;;;;;;1046.03;763.33;;;7.90;99.90;;;;;;5038709;28;20036;-80
2022/11/16 08:34:55;;;;;;;1999.90;999.90;;;7.90;99.90;;;;;;5063430;28;20044;-80
2022/11/16 08:37:21;;;;;;;1051.65;767.97;;;8.00;99.90;;;;;;5041222;28;20033;-77
2022/11/16 08:39:47;;;;;;;1351.75;829.55;;;8.00;99.90;;;;;;5051294;28;20398;-77
2022/11/16 08:42:14;;;;;;;1084.18;798.78;;;8.10;99.90;;;;;;5045012;28;20031;-80
2022/11/16 08:44:40;;;;;;;670.80;632.78;;;8.10;99.90;;;;;;5061115;28;20032;-79
2022/11/16 08:47:05;;;;;;;720.38;676.67;;;8.20;99.90;;;;;;5060781;28;20117;-81
2022/11/16 08:49:31;;;;;;;734.95;688.38;;;8.40;99.90;;;;;;5038261;28;20060;-80
2022/11/16 08:51:57;;;;;;;1031.97;750.28;;;8.70;99.90;;;;;;5049441;28;20029;-79
2022/11/16 08:54:22;;;;;;;1051.10;768.55;;;8.80;99.90;;;;;;5051059;28;20040;-80
2022/11/16 08:56:48;;;;;;;792.60;743.88;;;9.00;99.90;;;;;;5034581;28;20128;-79
2022/11/16 08:59:13;;;;;;;700.45;657.97;;;9.20;99.90;;;;;;5030282;28;20403;-79
2022/11/16 09:01:39;;;;;;;682.25;637.15;;;9.30;99.90;;;;;;5034426;28;20144;-79
2022/11/16 09:04:05;;;;;;;509.63;480.75;;;9.30;99.90;;;;;;5046183;28;20060;-79
2022/11/16 09:06:30;;;;;;;701.05;660.65;;;9.20;99.90;;;;;;5051193;28;20032;-78
2022/11/16 09:08:56;;;;;;;767.60;718.35;;;9.00;99.90;;;;;;5051020;28;20471;-79
2022/11/16 09:11:24;;;;;;;737.90;693.22;;;9.10;99.90;;;;;;5051297;28;20043;-80
2022/11/16 09:13:52;;;;;;;691.22;650.45;;;9.10;99.90;;;;;;5050523;28;20140;-79
2022/11/16 09:16:19;;;;;;;568.85;538.63;;;9.00;99.90;;;;;;5031458;28;20044;-79
2022/11/16 09:18:46;;;;;;;619.58;583.80;;;9.00;99.90;;;;;;5052274;28;20028;-78
2022/11/16 09:21:17;;;;;;;658.55;621.42;;;8.90;99.90;;;;;;5031572;28;20033;-79
2022/11/16 09:23:43;;;;;;;633.50;596.85;;;9.00;99.90;;;;;;5046519;28;20021;-79
2022/11/16 09:26:09;;;;;;;681.22;640.00;;;9.00;99.90;;;;;;5031725;28;20033;-79
2022/11/16 09:28:34;;;;;;;770.10;723.58;;;9.00;99.90;;;;;;5034028;28;20052;-79
2022/11/16 09:31:03;;;;;;;611.58;577.05;;;9.10;99.90;;;;;;5026401;28;20443;-81
2022/11/16 09:33:32;;;;;;;678.60;640.78;;;9.10;99.90;;;;;;5050490;28;20071;-79
2022/11/16 09:36:06;;;;;;;617.63;583.72;;;9.10;99.90;;;;;;5031737;28;20498;-79
2022/11/16 09:38:35;;;;;;;991.45;712.03;;;9.10;99.90;;;;;;5045152;28;20462;-79
2022/11/16 09:41:28;;;;;;;604.90;572.20;;;9.30;99.90;;;;;;5046955;28;20024;-78
2022/11/16 09:44:08;;;;;;;621.47;587.50;;;9.30;99.90;;;;;;5009885;28;20063;-79
2022/11/16 09:46:45;;;;;;;651.20;616.20;;;9.30;99.90;;;;;;5042208;28;20043;-78
2022/11/16 09:49:35;;;;;;;621.83;589.50;;;9.60;99.90;;;;;;5040914;28;20043;-78
2022/11/16 09:52:33;;;;;;;691.97;653.28;;;9.60;99.90;;;;;;5021986;28;20048;-80
2022/11/16 09:55:02;;;;;;;654.42;617.15;;;9.80;99.90;;;;;;5037874;28;20091;-78
2022/11/16 09:57:33;;;;;;;642.25;606.13;;;9.80;99.90;;;;;;5043824;28;20134;-80
2022/11/16 10:00:02;;;;;;;;;;;9.80;99.90;;;;;;5033635;28;20029;-78
2022/11/16 10:02:27;;;;;;;548.47;521.67;;;10.00;99.90;;;;;;5023309;28;19916;-79
2022/11/16 10:05:09;;;;;;;639.83;606.13;;;10.00;99.90;;;;;;5041609;28;20091;-78
2022/11/16 10:07:42;;;;;;;661.17;626.17;;;10.40;99.90;;;;;;5049911;28;21411;-78
2022/11/16 10:10:13;;;;;;;568.55;541.08;;;10.50;99.90;;;;;;5053493;28;20049;-81
2022/11/16 10:12:50;;;;;;;693.70;656.83;;;10.90;99.90;;;;;;5010149;28;20033;-78
2022/11/16 10:15:28;;;;;;;599.83;570.88;;;10.70;99.90;;;;;;5048898;28;20087;-78
2022/11/16 10:18:12;;;;;;;656.50;620.58;;;10.60;99.90;;;;;;5028740;28;20564;-78
2022/11/16 10:20:53;;;;;;;571.30;542.80;;;10.40;99.90;;;;;;5032268;28;20029;-78
2022/11/16 10:23:34;;;;;;;;;;;10.30;99.90;;;;;;5045739;28;20680;-79
2022/11/16 10:26:27;;;;;;;489.20;466.20;;;10.00;99.90;;;;;;5048351;28;19913;-77
2022/11/16 10:28:52;;;;;;;518.15;494.02;;;10.40;99.90;;;;;;5047589;28;20032;-79
2022/11/16 10:31:44;;;;;;;378.00;359.77;;;10.50;99.90;;;;;;5048864;28;20535;-78
2022/11/16 10:34:23;;;;;;;463.77;440.25;;;10.40;99.90;;;;;;5047892;28;20064;-77
2022/11/16 10:36:49;;;;;;;422.70;404.53;;;10.00;99.90;;;;;;5046803;28;20024;-78
2022/11/16 10:39:18;;;;;;;547.30;521.13;;;9.90;99.90;;;;;;5020167;28;20036;-80
2022/11/16 10:41:48;;;;;;;532.75;505.98;;;9.90;99.90;;;;;;5031062;28;20117;-79
2022/11/16 10:44:37;;;;;;;484.67;462.48;;;9.90;99.90;;;;;;5031521;28;20519;-78
2022/11/16 10:47:16;;;;;;;505.08;482.75;;;10.10;99.90;;;;;;5041428;28;20511;-78
2022/11/16 10:49:59;;;;;;;415.75;398.10;;;10.10;99.90;;;;;;5045161;28;20039;-78
2022/11/16 10:52:24;;;;;;;355.88;340.77;;;10.20;99.90;;;;;;5052664;28;20047;-79
2022/11/16 10:54:51;;;;;;;356.80;341.80;;;10.30;99.90;;;;;;5041142;28;20033;-77
2022/11/16 10:57:17;;;;;;;421.35;403.30;;;10.40;99.90;;;;;;5040000;28;20031;-78
2022/11/16 10:59:54;;;;;;;339.50;325.70;;;10.60;99.90;;;;;;5030368;28;20038;-78
2022/11/16 11:02:33;;;;;;;381.42;365.35;;;10.70;99.90;;;;;;5046580;28;20127;-77
2022/11/16 11:05:18;;;;;;;199.73;191.77;;;10.70;99.90;;;;;;5062468;28;20056;-78
2022/11/16 11:08:10;;;;;;;346.15;331.05;;;10.30;99.90;;;;;;5050163;28;20032;-79
2022/11/16 11:10:41;;;;;;;264.00;253.82;;;10.60;99.90;;;;;;5066045;28;20074;-77
2022/11/16 11:13:09;;;;;;;327.23;314.65;;;10.60;99.90;;;;;;5058565;28;20033;-78
2022/11/16 11:15:39;;;;;;;372.13;357.15;;;10.60;99.90;;;;;;5064643;28;20025;-76
2022/11/16 11:18:10;;;;;;;369.77;354.73;;;10.70;99.90;;;;;;5064171;28;20040;-75
2022/11/16 11:20:37;;;;;;;249.82;240.95;;;10.70;99.90;;;;;;5044084;28;20061;-77
2022/11/16 11:23:11;;;;;;;211.13;203.27;;;10.60;99.90;;;;;;5058518;28;20069;-76
2022/11/16 11:25:47;;;;;;;211.02;202.60;;;10.50;99.90;;;;;;5070354;28;20031;-75
2022/11/16 11:28:37;;;;;;;209.38;201.30;;;10.40;99.90;;;;;;5047927;28;20037;-75
2022/11/16 11:31:24;;;;;;;228.18;219.65;;;10.60;99.90;;;;;;5060341;28;20037;-77
2022/11/16 11:33:58;;;;;;;244.63;235.40;;;10.60;99.90;;;;;;5066895;28;20037;-78
2022/11/16 11:36:34;;;;;;;225.55;217.10;;;10.50;99.90;;;;;;5064885;28;20024;-76
2022/11/16 11:39:04;;;;;;;287.80;275.65;;;10.20;99.90;;;;;;5052163;28;20028;-76
2022/11/16 11:41:37;;;;;;;;;;;10.20;99.90;;;;;;5073665;28;20021;-75
2022/11/16 11:44:05;;;;;;;122.97;118.13;;;10.30;99.90;;;;;;5053329;28;19908;-76
2022/11/16 11:46:36;;;;;;;111.43;107.28;;;10.50;99.90;;;;;;5068537;28;20465;-76
2022/11/16 11:49:08;;;;;;;197.32;190.05;;;10.60;99.90;;;;;;5068201;28;20112;-76
2022/11/16 11:51:39;;;;;;;207.63;199.75;;;10.90;99.90;;;;;;5074713;28;20044;-76
2022/11/16 11:54:06;;;;;;;;;;;11.20;99.90;;;;;;5063557;28;20044;-77
2022/11/16 11:56:33;;;;;;;39.83;38.00;;;10.80;97.50;;;;;;5059925;28;19913;-77
2022/11/16 11:58:59;;;;;;;79.18;76.15;;;10.90;94.60;;;;;;5061718;28;20094;-75
2022/11/16 12:01:43;;;;;;;81.53;78.45;;;11.40;93.20;;;;;;5065017;28;20949;-74
2022/11/16 12:04:42;;;;;;;91.32;88.05;;;11.60;88.80;;;;;;5069106;28;20055;-74
2022/11/16 12:07:34;;;;;;;46.20;44.45;;;12.00;86.00;;;;;;5070106;28;20693;-74
2022/11/16 12:10:22;;;;;;;68.57;65.97;;;12.10;84.70;;;;;;5067024;28;20106;-74
2022/11/16 12:13:07;;;;;;;54.10;51.67;;;12.40;84.50;;;;;;5061865;28;20033;-75
2022/11/16 12:15:54;;;;;;;192.25;179.60;;;12.40;82.50;;;;;;5067899;28;20496;-77
2022/11/16 12:18:42;;;;;;;63.35;60.85;;;12.10;82.80;;;;;;5065986;28;20043;-75
2022/11/16 12:21:12;;;;;;;98.82;95.07;;;11.80;81.80;;;;;;5046307;28;20036;-76
2022/11/16 12:24:32;;;;;;;46.03;44.23;;;12.00;84.70;;;;;;5068126;28;20107;-75
2022/11/16 12:27:16;;;;;;;33.38;31.77;;;11.80;81.60;;;;;;4964283;28;20090;-74
2022/11/16 12:30:10;;;;;;;88.20;85.15;;;11.70;83.60;;;;;;5057121;28;20040;-74
2022/11/16 12:33:00;;;;;;;98.07;94.43;;;11.80;86.50;;;;;;5061487;28;20465;-74
2022/11/16 12:35:50;;;;;;;87.68;83.97;;;11.90;85.60;;;;;;5031456;28;20406;-74
2022/11/16 12:38:35;;;;;;;131.30;126.15;;;11.90;84.30;;;;;;5066988;28;20032;-75
2022/11/16 12:41:04;;;;;;;105.13;101.15;;;11.80;84.60;;;;;;5059890;28;20082;-75
2022/11/16 12:43:41;;;;;;;99.40;95.78;;;11.80;85.10;;;;;;5068298;28;20508;-74
2022/11/16 12:46:29;;;;;;;79.75;76.82;;;12.10;84.50;;;;;;5066555;28;21441;-74
2022/11/16 12:49:20;;;;;;;82.45;79.45;;;12.20;83.30;;;;;;5063434;28;20462;-74
2022/11/16 12:52:07;;;;;;;209.02;191.27;;;12.20;83.30;;;;;;5053291;28;20036;-74
2022/11/16 12:55:14;;;;;;;81.78;78.40;;;12.20;82.50;;;;;;5054181;28;20031;-74
2022/11/16 12:57:58;;;;;;;244.27;227.73;;;12.20;81.90;;;;;;4978928;28;20106;-74
2022/11/16 13:00:27;;;;;;;50.30;48.40;;;12.30;80.40;;;;;;5057669;28;20086;-74
2022/11/16 13:03:12;;;;;;;32.75;31.42;;;12.30;80.60;;;;;;5069974;28;20020;-74
2022/11/16 13:06:02;;;;;;;61.67;59.38;;;12.30;80.30;;;;;;5051683;28;20029;-74
2022/11/16 13:08:46;;;;;;;100.80;93.10;;;12.50;82.20;;;;;;5048583;28;20033;-74
2022/11/16 13:11:34;;;;;;;61.95;59.22;;;12.50;78.50;;;;;;5071280;28;20021;-74
2022/11/16 13:14:04;;;;;;;90.30;86.80;;;12.20;81.60;;;;;;5074418;28;20583;-74
2022/11/16 13:16:29;;;;;;;44.80;43.03;;;11.80;81.10;;;;;;5066019;28;20044;-74
2022/11/16 13:18:56;;;;;;;53.22;51.05;;;11.70;82.00;;;;;;5051672;28;20033;-74
2022/11/16 13:21:28;;;;;;;86.20;82.75;;;11.50;83.20;;;;;;5069404;28;20025;-75
2022/11/16 13:24:23;;;;;;;114.85;110.65;;;11.40;82.70;;;;;;5067831;28;20103;-75